NGTA/TRW METAR and TAF weather

Enter ICAO airport designator
Station Type Date Time Source
NGTA METAR 2022/06/27 08:00 UTC NOAA

NGTA 270800Z 10010KT 9999 FEW020 28/24 Q1006


Station Type Date Time Source
NGTA Decoded METAR 2022/06/27 08:00 UTC NOAA

Tarawa, Kiribati (NGTA) 01-21N 172-55E 4M
Jun 27, 2022 - 04:00 AM EDT / 2022.06.27 0800 UTC
Wind: from the E (100 degrees) at 12 MPH (10 KT):0
Visibility: greater than 7 mile(s):0
Sky conditions: mostly clear
Temperature: 82 F (28 C)
Dew Point: 75 F (24 C)
Relative Humidity: 78%
Pressure (altimeter): 29.71 in. Hg (1006 hPa)
ob: NGTA 270800Z 10010KT 9999 FEW020 28/24 Q1006
cycle: 8

Station Type Date Time Source
NGTA TAF 2022/06/27 06:15 UTC NOAA

TAF NGTA 270511Z 2706/2806 09012KT 9999 FEW020 SCT040

Example: see airport list